Lumsden, Canada
Current Conditions -  °F | °C
As of 7:00 AM on Thursday 23 Oct 2014 (Local Time) from CYQR Reporting Station
Broken Clouds Broken Clouds  
Wind Chill: 26°   Ceiling: 25000
Heat Index: 32°   Visibility: 15mi
Dew Point: 30°   Wind: 7mph
Humidity: 93%   Direction: 120°ESE
Pressure: 29.75"   Gusts: NA
Location:  50.64°N, 104.87°W
Report Text: CYQR 231300Z 12006KT 15SM BKN250 00/M01 A2975 RMK CI6 SLP096
Loading
Personal Weather Stations






























Interactive Weather Map New forecast layout! Learn more

10-Day Weather Forecast

Advertisements
Track Severe Weather on mobile